createdAt,value
2023-03-12T00:02:30.043Z,66.07
2023-03-12T00:05:31.912Z,66.62
2023-03-12T00:08:33.935Z,66.12
2023-03-12T00:11:35.726Z,65.25
2023-03-12T00:14:37.620Z,64.82
2023-03-12T00:17:39.422Z,63.79
2023-03-12T00:20:41.352Z,63.92
2023-03-12T00:23:43.281Z,64.93
2023-03-12T00:26:45.064Z,64.71
2023-03-12T00:29:46.946Z,64.82
2023-03-12T00:32:48.715Z,65.16
2023-03-12T00:35:50.812Z,65.27
2023-03-12T00:38:53.177Z,65.89
2023-03-12T00:41:55.572Z,66.29
2023-03-12T00:44:57.351Z,66.81
2023-03-12T00:47:59.229Z,67.30
2023-03-12T00:51:01.105Z,67.60
2023-03-12T00:54:02.974Z,67.39
2023-03-12T00:57:04.984Z,67.01
2023-03-12T01:00:10.783Z,66.72
2023-03-12T01:03:15.440Z,66.77
2023-03-12T01:06:17.737Z,65.75
2023-03-12T01:09:19.914Z,65.25
2023-03-12T01:12:21.854Z,64.47
2023-03-12T01:15:23.888Z,65.02
2023-03-12T01:18:25.974Z,64.61
2023-03-12T01:21:29.884Z,64.76
2023-03-12T01:24:31.814Z,65.11
2023-03-12T01:27:33.617Z,64.96
2023-03-12T01:30:35.695Z,65.08
2023-03-12T01:33:37.893Z,65.19
2023-03-12T01:36:39.697Z,65.45
2023-03-12T01:39:41.537Z,65.06
2023-03-12T01:42:43.444Z,64.44
2023-03-12T01:46:06.573Z,64.78
2023-03-12T01:49:26.778Z,65.40
2023-03-12T01:52:34.208Z,66.13
2023-03-12T01:55:36.008Z,67.04
2023-03-12T01:58:40.944Z,67.68
2023-03-12T02:01:43.439Z,67.83
2023-03-12T02:04:46.120Z,67.98
2023-03-12T02:07:47.990Z,68.72
2023-03-12T02:10:49.959Z,68.56
2023-03-12T02:13:51.700Z,68.73
2023-03-12T02:16:54.285Z,68.83
2023-03-12T02:20:08.049Z,68.93
2023-03-12T02:23:14.029Z,69.06
2023-03-12T02:26:16.870Z,69.39
2023-03-12T02:29:19.215Z,69.58
2023-03-12T02:32:27.364Z,69.57
2023-03-12T02:35:29.100Z,69.97
2023-03-12T02:38:40.072Z,69.78
2023-03-12T02:41:44.158Z,69.41
2023-03-12T02:44:46.088Z,69.05
2023-03-12T02:47:47.944Z,68.90
2023-03-12T02:50:49.797Z,67.99
2023-03-12T02:53:54.989Z,67.93
2023-03-12T02:56:57.155Z,67.75
2023-03-12T02:59:59.285Z,67.68
2023-03-12T03:03:01.684Z,67.38
2023-03-12T03:06:03.648Z,67.26
2023-03-12T03:09:05.717Z,67.61
2023-03-12T03:12:07.681Z,67.75
2023-03-12T03:15:10.617Z,68.20
2023-03-12T03:18:12.444Z,68.39
2023-03-12T03:21:16.739Z,68.51
2023-03-12T03:24:18.789Z,68.64
2023-03-12T03:27:20.655Z,68.65
2023-03-12T03:30:22.740Z,68.77
2023-03-12T03:33:24.620Z,69.16
2023-03-12T03:36:26.506Z,69.74
2023-03-12T03:39:29.522Z,70.96
2023-03-12T03:42:31.421Z,71.30
2023-03-12T03:45:33.181Z,71.42
2023-03-12T03:48:35.069Z,72.12
2023-03-12T03:51:37.127Z,71.74
2023-03-12T03:54:38.874Z,71.46
2023-03-12T03:57:40.984Z,72.18
2023-03-12T04:00:45.282Z,72.77
2023-03-12T04:03:48.182Z,72.90
2023-03-12T04:06:50.429Z,73.07
2023-03-12T04:09:52.259Z,73.99
2023-03-12T04:12:54.184Z,73.57
2023-03-12T04:15:56.076Z,73.89
2023-03-12T04:18:57.894Z,74.61
2023-03-12T04:21:59.713Z,75.18
2023-03-12T04:25:01.559Z,75.23
2023-03-12T04:28:03.666Z,75.63
2023-03-12T04:31:07.689Z,75.78
2023-03-12T04:34:11.948Z,75.54
2023-03-12T04:37:15.193Z,75.66
2023-03-12T04:40:19.272Z,76.05
2023-03-12T04:43:21.206Z,76.22
2023-03-12T04:46:23.204Z,75.65
2023-03-12T04:49:25.359Z,76.71
2023-03-12T04:52:27.323Z,76.87
2023-03-12T04:55:29.157Z,76.72
2023-03-12T04:58:31.206Z,76.52
2023-03-12T05:01:35.743Z,76.96
2023-03-12T05:04:37.583Z,77.23
2023-03-12T05:07:39.354Z,77.58
2023-03-12T05:10:41.366Z,78.40
2023-03-12T05:13:43.572Z,78.59
2023-03-12T05:16:45.579Z,78.52
2023-03-12T05:19:47.411Z,78.60
2023-03-12T05:22:49.251Z,78.97
2023-03-12T05:25:51.067Z,78.88
2023-03-12T05:28:53.010Z,78.91
2023-03-12T05:31:54.800Z,78.77
2023-03-12T05:34:56.662Z,79.37
2023-03-12T05:37:58.462Z,79.35
2023-03-12T05:41:00.609Z,78.80
2023-03-12T05:44:02.492Z,78.85
2023-03-12T05:47:04.346Z,78.35
2023-03-12T05:50:06.578Z,78.70
2023-03-12T05:53:09.382Z,78.62
2023-03-12T05:56:13.495Z,75.71
2023-03-12T05:59:15.593Z,74.51
2023-03-12T06:02:17.466Z,62.90
2023-03-12T06:05:19.281Z,55.56
2023-03-12T06:08:22.719Z,52.08
2023-03-12T06:11:24.682Z,58.44
2023-03-12T06:14:26.577Z,60.24
2023-03-12T06:17:30.192Z,63.26
2023-03-12T06:20:33.735Z,65.64
2023-03-12T06:23:35.916Z,65.75
2023-03-12T06:26:37.858Z,66.00
2023-03-12T06:29:39.703Z,66.60
2023-03-12T06:32:41.605Z,66.50
2023-03-12T06:35:43.579Z,66.76
2023-03-12T06:38:45.454Z,65.83
2023-03-12T06:41:47.288Z,66.17
2023-03-12T06:44:50.156Z,65.86
2023-03-12T06:47:52.025Z,64.76
2023-03-12T06:50:53.865Z,64.38
2023-03-12T06:53:55.805Z,63.60
2023-03-12T06:56:59.437Z,63.15
2023-03-12T07:00:01.340Z,63.27
2023-03-12T07:03:03.204Z,62.68
2023-03-12T07:06:05.722Z,62.02
2023-03-12T07:09:07.846Z,62.16
2023-03-12T07:12:10.076Z,61.75
2023-03-12T07:15:12.735Z,61.04
2023-03-12T07:18:14.701Z,60.72
2023-03-12T07:21:22.698Z,60.85
2023-03-12T07:24:24.607Z,60.70
2023-03-12T07:27:26.437Z,60.20
2023-03-12T07:30:31.842Z,59.52
2023-03-12T07:33:34.237Z,59.59
2023-03-12T07:36:36.249Z,59.31
2023-03-12T07:39:38.364Z,59.61
2023-03-12T07:42:40.309Z,59.27
2023-03-12T07:45:42.600Z,58.34
2023-03-12T07:48:44.696Z,58.64
2023-03-12T07:51:46.933Z,57.99
2023-03-12T07:54:49.171Z,57.24
2023-03-12T07:57:51.493Z,54.58
2023-03-12T08:00:56.291Z,55.37
2023-03-12T08:04:02.029Z,55.20
2023-03-12T08:07:04.122Z,54.83
2023-03-12T08:10:08.632Z,53.14
2023-03-12T08:13:10.896Z,51.46
2023-03-12T08:16:13.430Z,50.90
2023-03-12T08:19:16.482Z,51.34
2023-03-12T08:22:18.315Z,51.54
2023-03-12T08:25:21.169Z,50.22
2023-03-12T08:28:24.728Z,50.03
2023-03-12T08:31:28.313Z,51.35
2023-03-12T08:34:30.328Z,49.43
2023-03-12T08:37:32.954Z,49.07
2023-03-12T08:40:35.388Z,49.57
2023-03-12T08:43:37.574Z,48.17
2023-03-12T08:46:40.219Z,47.51
2023-03-12T08:49:46.924Z,47.88
2023-03-12T08:52:49.194Z,47.49
2023-03-12T08:55:55.393Z,45.93
2023-03-12T08:59:00.803Z,45.65
2023-03-12T09:02:02.961Z,45.14
2023-03-12T09:05:05.378Z,46.45
2023-03-12T09:08:08.266Z,46.37
2023-03-12T09:11:11.890Z,44.33
2023-03-12T09:15:01.554Z,43.62
2023-03-12T09:17:35.893Z,44.92
2023-03-12T09:20:39.082Z,43.67
2023-03-12T09:23:40.990Z,44.06
2023-03-12T09:26:42.860Z,43.78
2023-03-12T09:29:58.793Z,43.52
2023-03-12T09:33:01.341Z,42.37
2023-03-12T09:36:03.770Z,42.38
2023-03-12T09:39:05.991Z,41.66
2023-03-12T09:42:15.441Z,42.55
2023-03-12T09:45:23.579Z,40.66
2023-03-12T09:48:32.456Z,41.29
2023-03-12T09:51:49.316Z,40.71
2023-03-12T09:55:04.432Z,40.72
2023-03-12T09:58:13.683Z,40.70
2023-03-12T10:01:46.464Z,41.49
2023-03-12T10:04:59.831Z,40.65
2023-03-12T10:08:30.647Z,40.29
2023-03-12T10:11:56.919Z,37.99
2023-03-12T10:15:22.068Z,39.34
2023-03-12T10:18:31.820Z,38.65
2023-03-12T10:21:50.193Z,38.65
2023-03-12T10:25:08.773Z,39.81
2023-03-12T10:28:22.780Z,39.22
2023-03-12T10:31:29.145Z,40.11
2023-03-12T10:34:46.083Z,38.54
2023-03-12T10:37:58.297Z,38.05
2023-03-12T10:41:00.621Z,36.33
2023-03-12T10:44:06.624Z,38.07
2023-03-12T10:47:20.809Z,35.11
2023-03-12T10:50:26.303Z,36.78
2023-03-12T10:53:32.066Z,36.24
2023-03-12T10:56:48.953Z,35.06
2023-03-12T10:59:51.377Z,36.15
2023-03-12T11:03:04.814Z,36.91
2023-03-12T11:06:08.311Z,35.91
2023-03-12T11:09:16.736Z,35.67
2023-03-12T11:12:24.601Z,35.41
2023-03-12T11:15:41.427Z,33.65
2023-03-12T11:19:01.525Z,33.07
2023-03-12T11:22:11.802Z,31.94
2023-03-12T11:25:30.233Z,33.13
2023-03-12T11:28:40.874Z,32.80
2023-03-12T11:31:48.206Z,32.84
2023-03-12T11:34:50.574Z,32.64
2023-03-12T11:37:58.305Z,33.21
2023-03-12T11:41:06.044Z,33.82
2023-03-12T11:44:29.003Z,33.00
2023-03-12T11:47:49.568Z,32.96
2023-03-12T11:51:25.623Z,33.04
2023-03-12T11:54:42.482Z,32.42
2023-03-12T11:58:21.980Z,32.77
2023-03-12T12:01:40.851Z,32.40
2023-03-12T12:05:17.672Z,31.93
2023-03-12T12:08:19.371Z,29.69
2023-03-12T12:11:21.182Z,30.94
2023-03-12T12:14:25.924Z,32.05
2023-03-12T12:17:47.554Z,31.50
2023-03-12T12:21:02.216Z,30.36
2023-03-12T12:24:10.235Z,31.05
2023-03-12T12:27:32.330Z,30.78
2023-03-12T12:30:50.219Z,30.32
2023-03-12T12:34:07.666Z,30.45
2023-03-12T12:37:12.076Z,31.99
2023-03-12T12:40:34.975Z,30.70
2023-03-12T12:43:41.824Z,31.07
2023-03-12T12:46:48.313Z,30.18
2023-03-12T12:49:54.507Z,30.53
2023-03-12T12:53:06.265Z,29.90
2023-03-12T12:56:26.176Z,30.54
2023-03-12T13:00:06.406Z,29.71
2023-03-12T13:03:21.293Z,30.41
2023-03-12T13:06:29.224Z,29.97
2023-03-12T13:09:50.756Z,29.04
2023-03-12T13:12:55.557Z,30.01
2023-03-12T13:16:17.026Z,29.07
2023-03-12T13:19:19.076Z,28.76
2023-03-12T13:22:35.518Z,27.40
2023-03-12T13:25:56.001Z,28.70
2023-03-12T13:29:12.201Z,28.39
2023-03-12T13:32:35.708Z,27.34
2023-03-12T13:35:39.371Z,27.31
2023-03-12T13:39:01.322Z,25.75
2023-03-12T13:42:24.979Z,27.83
2023-03-12T13:45:30.614Z,28.17
2023-03-12T13:48:36.498Z,28.94
2023-03-12T13:51:46.779Z,25.09
2023-03-12T13:55:21.787Z,27.26
2023-03-12T13:58:23.750Z,28.15
2023-03-12T14:01:37.867Z,27.20
2023-03-12T14:04:41.727Z,26.37
2023-03-12T14:08:12.706Z,27.69
2023-03-12T14:11:21.084Z,29.57
2023-03-12T14:14:41.565Z,28.78
2023-03-12T14:17:44.180Z,29.25
2023-03-12T14:20:53.933Z,29.07
2023-03-12T14:23:58.218Z,29.26
2023-03-12T14:27:01.700Z,28.42
2023-03-12T14:30:12.651Z,28.31
2023-03-12T14:33:16.131Z,29.38
2023-03-12T14:36:20.651Z,29.89
2023-03-12T14:39:30.487Z,28.34
2023-03-12T14:42:34.610Z,27.81
2023-03-12T14:45:40.240Z,29.14
2023-03-12T14:48:42.253Z,29.12
2023-03-12T14:51:44.262Z,28.80
2023-03-12T14:55:04.588Z,29.68
2023-03-12T14:58:14.802Z,29.43
2023-03-12T15:01:23.535Z,30.70
2023-03-12T15:04:25.913Z,30.16
2023-03-12T15:07:39.531Z,31.04
2023-03-12T15:10:48.218Z,31.04
2023-03-12T15:13:50.770Z,30.79
2023-03-12T15:16:53.201Z,31.04
2023-03-12T15:19:57.266Z,32.19
2023-03-12T15:23:00.243Z,32.09
2023-03-12T15:26:13.794Z,31.97
2023-03-12T15:29:30.275Z,32.91
2023-03-12T15:32:32.365Z,32.73
2023-03-12T15:35:37.342Z,32.40
2023-03-12T15:38:45.418Z,33.42
2023-03-12T15:41:51.484Z,33.18
2023-03-12T15:45:03.323Z,32.71
2023-03-12T15:48:36.789Z,32.82
2023-03-12T15:51:40.538Z,33.16
2023-03-12T15:54:42.933Z,32.91
2023-03-12T15:57:52.027Z,32.72
2023-03-12T16:00:54.340Z,33.17
2023-03-12T16:03:58.650Z,33.95
2023-03-12T16:07:01.923Z,33.75
2023-03-12T16:10:04.780Z,34.06
2023-03-12T16:13:06.781Z,34.09
2023-03-12T16:16:12.416Z,33.77
2023-03-12T16:19:20.281Z,34.62
2023-03-12T16:22:22.557Z,35.21
2023-03-12T16:25:24.738Z,35.49
2023-03-12T16:28:27.330Z,35.82
2023-03-12T16:31:29.989Z,36.22
2023-03-12T16:34:32.070Z,36.53
2023-03-12T16:37:33.998Z,37.08
2023-03-12T16:40:38.721Z,37.27
2023-03-12T16:43:41.888Z,37.81
2023-03-12T16:46:45.363Z,38.18
2023-03-12T16:49:47.465Z,38.49
2023-03-12T16:52:53.315Z,39.13
2023-03-12T16:56:01.101Z,39.73
2023-03-12T16:59:08.699Z,40.25
2023-03-12T17:02:16.174Z,40.98
2023-03-12T17:05:18.265Z,41.35
2023-03-12T17:08:20.408Z,42.12
2023-03-12T17:11:30.077Z,42.63
2023-03-12T17:14:32.333Z,43.36
2023-03-12T17:17:34.434Z,43.61
2023-03-12T17:20:36.471Z,44.12
2023-03-12T17:23:39.394Z,44.35
2023-03-12T17:26:43.317Z,44.89
2023-03-12T17:29:45.355Z,45.27
2023-03-12T17:32:47.813Z,45.82
2023-03-12T17:36:02.200Z,45.80
2023-03-12T17:39:04.568Z,46.46
2023-03-12T17:42:06.839Z,46.60
2023-03-12T17:45:09.856Z,46.72
2023-03-12T17:48:12.144Z,47.26
2023-03-12T17:51:14.222Z,47.36
2023-03-12T17:54:16.275Z,47.54
2023-03-12T17:57:18.516Z,47.57
2023-03-12T18:00:22.958Z,48.30
2023-03-12T18:03:24.988Z,48.67
2023-03-12T18:06:27.073Z,49.19
2023-03-12T18:09:29.127Z,49.38
2023-03-12T18:12:30.963Z,49.88
2023-03-12T18:15:33.051Z,49.98
2023-03-12T18:18:35.119Z,49.95
2023-03-12T18:21:37.086Z,53.19
2023-03-12T18:24:39.127Z,53.92
2023-03-12T18:27:41.277Z,55.55
2023-03-12T18:30:46.988Z,56.16
2023-03-12T18:33:49.098Z,55.21
2023-03-12T18:36:51.118Z,54.70
2023-03-12T18:39:53.172Z,54.30
2023-03-12T18:42:59.870Z,54.66
2023-03-12T18:46:02.126Z,55.22
2023-03-12T18:49:07.744Z,55.16
2023-03-12T18:52:09.968Z,55.70
2023-03-12T18:55:15.631Z,55.54
2023-03-12T18:58:17.733Z,55.25
2023-03-12T19:01:19.787Z,55.50
2023-03-12T19:04:22.138Z,55.69
2023-03-12T19:07:24.230Z,55.56
2023-03-12T19:10:26.590Z,55.80
2023-03-12T19:13:28.667Z,55.91
2023-03-12T19:16:31.570Z,56.22
2023-03-12T19:19:34.310Z,56.59
2023-03-12T19:22:36.417Z,56.48
2023-03-12T19:25:38.878Z,56.99
2023-03-12T19:28:41.663Z,57.29
2023-03-12T19:31:43.853Z,57.54
2023-03-12T19:34:50.543Z,57.66
2023-03-12T19:37:54.420Z,58.18
2023-03-12T19:40:58.070Z,58.26
2023-03-12T19:44:00.193Z,58.39
2023-03-12T19:47:06.866Z,59.50
2023-03-12T19:50:10.857Z,59.30
2023-03-12T19:53:14.641Z,58.90
2023-03-12T19:56:18.575Z,58.75
2023-03-12T19:59:20.717Z,58.70
2023-03-12T20:02:22.761Z,58.89
2023-03-12T20:05:25.716Z,58.69
2023-03-12T20:08:30.939Z,60.05
2023-03-12T20:11:35.361Z,59.72
2023-03-12T20:14:37.375Z,60.97
2023-03-12T20:17:39.561Z,61.14
2023-03-12T20:20:42.987Z,60.73
2023-03-12T20:23:45.231Z,62.23
2023-03-12T20:26:47.062Z,61.90
2023-03-12T20:29:50.836Z,61.50
2023-03-12T20:32:57.923Z,62.01
2023-03-12T20:36:00.201Z,62.79
2023-03-12T20:39:02.240Z,62.88
2023-03-12T20:42:04.970Z,62.37
2023-03-12T20:45:07.780Z,62.10
2023-03-12T20:48:10.797Z,61.67
2023-03-12T20:51:12.988Z,61.92
2023-03-12T20:54:15.179Z,62.78
2023-03-12T20:57:17.350Z,62.44
2023-03-12T21:00:25.133Z,62.54
2023-03-12T21:03:27.168Z,62.09
2023-03-12T21:06:29.174Z,61.99
2023-03-12T21:09:31.264Z,60.57
2023-03-12T21:12:33.458Z,60.35
2023-03-12T21:15:37.270Z,60.21
2023-03-12T21:18:39.416Z,59.99
2023-03-12T21:21:41.820Z,60.09
2023-03-12T21:24:43.884Z,60.34
2023-03-12T21:27:50.855Z,60.33
2023-03-12T21:30:53.506Z,60.06
2023-03-12T21:33:59.231Z,60.67
2023-03-12T21:37:01.101Z,60.76
2023-03-12T21:40:03.484Z,60.53
2023-03-12T21:43:05.864Z,60.66
2023-03-12T21:46:09.677Z,61.26
2023-03-12T21:49:13.879Z,61.03
2023-03-12T21:52:15.773Z,61.85
2023-03-12T21:55:17.964Z,60.78
2023-03-12T21:58:19.849Z,60.74
2023-03-12T22:01:21.671Z,60.15
2023-03-12T22:04:24.444Z,60.70
2023-03-12T22:07:26.216Z,62.02
2023-03-12T22:10:28.193Z,66.02
2023-03-12T22:13:30.014Z,63.50
2023-03-12T22:16:31.866Z,63.75
2023-03-12T22:19:33.683Z,64.99
2023-03-12T22:22:35.735Z,64.16
2023-03-12T22:25:37.622Z,62.86
2023-03-12T22:28:40.449Z,61.61
2023-03-12T22:31:42.252Z,60.71
2023-03-12T22:34:44.040Z,60.14
2023-03-12T22:37:45.855Z,59.64
2023-03-12T22:40:49.039Z,60.90
2023-03-12T22:43:54.248Z,61.62
2023-03-12T22:46:56.308Z,61.56
2023-03-12T22:49:58.479Z,61.13
2023-03-12T22:53:00.336Z,59.87
2023-03-12T22:56:07.584Z,58.08
2023-03-12T22:59:09.439Z,57.48
2023-03-12T23:02:11.499Z,57.27
2023-03-12T23:05:13.248Z,56.57
2023-03-12T23:08:15.364Z,57.41
2023-03-12T23:11:18.767Z,58.75
2023-03-12T23:14:20.913Z,59.69
2023-03-12T23:17:23.520Z,60.59
2023-03-12T23:20:25.521Z,59.35
2023-03-12T23:23:27.498Z,58.57
2023-03-12T23:26:29.353Z,58.19
2023-03-12T23:29:31.728Z,57.49
2023-03-12T23:32:34.790Z,56.55
2023-03-12T23:35:36.798Z,56.53
2023-03-12T23:38:38.766Z,55.99
2023-03-12T23:41:40.793Z,55.70
2023-03-12T23:44:42.599Z,55.57
2023-03-12T23:47:44.373Z,56.04
2023-03-12T23:50:46.442Z,56.63
2023-03-12T23:53:50.660Z,56.60
2023-03-12T23:56:52.494Z,57.00
2023-03-12T23:59:54.329Z,58.32
